sensor_id;sensor_type;location;lat;lon;timestamp;temperature;humidity
18126;DHT22;53956;52.442;13.284;2023-06-22T00:02:00;25.70;91.90
18126;DHT22;53956;52.442;13.284;2023-06-22T00:04:28;25.60;91.80
18126;DHT22;53956;52.442;13.284;2023-06-22T00:06:54;25.60;91.90
18126;DHT22;53956;52.442;13.284;2023-06-22T00:09:22;25.60;91.60
18126;DHT22;53956;52.442;13.284;2023-06-22T00:11:49;25.60;91.70
18126;DHT22;53956;52.442;13.284;2023-06-22T00:14:15;25.50;91.90
18126;DHT22;53956;52.442;13.284;2023-06-22T00:16:42;25.60;91.50
18126;DHT22;53956;52.442;13.284;2023-06-22T00:19:09;25.60;91.50
18126;DHT22;53956;52.442;13.284;2023-06-22T00:21:37;25.60;91.80
18126;DHT22;53956;52.442;13.284;2023-06-22T00:24:04;25.60;91.20
18126;DHT22;53956;52.442;13.284;2023-06-22T00:26:32;25.60;91.90
18126;DHT22;53956;52.442;13.284;2023-06-22T00:28:59;25.50;91.90
18126;DHT22;53956;52.442;13.284;2023-06-22T00:31:26;25.50;92.00
18126;DHT22;53956;52.442;13.284;2023-06-22T00:33:53;25.50;91.80
18126;DHT22;53956;52.442;13.284;2023-06-22T00:36:20;25.50;92.30
18126;DHT22;53956;52.442;13.284;2023-06-22T00:38:46;25.50;92.10
18126;DHT22;53956;52.442;13.284;2023-06-22T00:41:16;25.40;92.00
18126;DHT22;53956;52.442;13.284;2023-06-22T00:43:45;25.40;92.10
18126;DHT22;53956;52.442;13.284;2023-06-22T00:46:11;25.40;91.80
18126;DHT22;53956;52.442;13.284;2023-06-22T00:48:38;25.50;92.30
18126;DHT22;53956;52.442;13.284;2023-06-22T00:51:07;25.50;92.10
18126;DHT22;53956;52.442;13.284;2023-06-22T00:53:34;25.40;92.30
18126;DHT22;53956;52.442;13.284;2023-06-22T00:56:03;25.40;92.30
18126;DHT22;53956;52.442;13.284;2023-06-22T00:58:31;25.40;92.70
18126;DHT22;53956;52.442;13.284;2023-06-22T01:00:59;25.30;92.40
18126;DHT22;53956;52.442;13.284;2023-06-22T01:03:27;25.30;92.10
18126;DHT22;53956;52.442;13.284;2023-06-22T01:05:59;25.30;92.60
18126;DHT22;53956;52.442;13.284;2023-06-22T01:08:31;25.40;92.50
18126;DHT22;53956;52.442;13.284;2023-06-22T01:11:03;25.30;92.30
18126;DHT22;53956;52.442;13.284;2023-06-22T01:13:37;25.30;92.80
18126;DHT22;53956;52.442;13.284;2023-06-22T01:16:08;25.40;92.50
18126;DHT22;53956;52.442;13.284;2023-06-22T01:18:40;25.30;93.20
18126;DHT22;53956;52.442;13.284;2023-06-22T01:21:12;25.20;93.00
18126;DHT22;53956;52.442;13.284;2023-06-22T01:23:51;25.20;93.00
18126;DHT22;53956;52.442;13.284;2023-06-22T01:26:25;25.20;93.70
18126;DHT22;53956;52.442;13.284;2023-06-22T01:28:57;25.10;93.60
18126;DHT22;53956;52.442;13.284;2023-06-22T01:31:28;25.20;93.70
18126;DHT22;53956;52.442;13.284;2023-06-22T01:33:59;25.10;93.50
18126;DHT22;53956;52.442;13.284;2023-06-22T01:36:26;25.20;93.80
18126;DHT22;53956;52.442;13.284;2023-06-22T01:38:53;25.30;93.70
18126;DHT22;53956;52.442;13.284;2023-06-22T01:41:20;25.20;93.80
18126;DHT22;53956;52.442;13.284;2023-06-22T01:43:48;25.10;94.00
18126;DHT22;53956;52.442;13.284;2023-06-22T01:46:16;25.10;94.00
18126;DHT22;53956;52.442;13.284;2023-06-22T01:48:45;25.10;94.10
18126;DHT22;53956;52.442;13.284;2023-06-22T01:51:12;25.10;93.80
18126;DHT22;53956;52.442;13.284;2023-06-22T01:53:39;25.10;93.90
18126;DHT22;53956;52.442;13.284;2023-06-22T01:56:05;25.20;94.50
18126;DHT22;53956;52.442;13.284;2023-06-22T01:58:33;25.20;94.10
18126;DHT22;53956;52.442;13.284;2023-06-22T02:01:10;25.20;94.00
18126;DHT22;53956;52.442;13.284;2023-06-22T02:03:41;25.20;94.50
18126;DHT22;53956;52.442;13.284;2023-06-22T02:06:12;25.10;94.70
18126;DHT22;53956;52.442;13.284;2023-06-22T02:08:48;25.20;94.50
18126;DHT22;53956;52.442;13.284;2023-06-22T02:11:18;25.20;94.90
18126;DHT22;53956;52.442;13.284;2023-06-22T02:13:46;25.10;95.00
18126;DHT22;53956;52.442;13.284;2023-06-22T02:16:14;25.00;95.60
18126;DHT22;53956;52.442;13.284;2023-06-22T02:18:47;25.10;95.70
18126;DHT22;53956;52.442;13.284;2023-06-22T02:21:16;25.10;95.80
18126;DHT22;53956;52.442;13.284;2023-06-22T02:23:42;25.10;95.90
18126;DHT22;53956;52.442;13.284;2023-06-22T02:26:10;25.00;95.60
18126;DHT22;53956;52.442;13.284;2023-06-22T02:28:36;25.00;96.80
18126;DHT22;53956;52.442;13.284;2023-06-22T02:31:03;24.90;95.90
18126;DHT22;53956;52.442;13.284;2023-06-22T02:33:29;25.00;96.40
18126;DHT22;53956;52.442;13.284;2023-06-22T02:35:57;25.00;96.70
18126;DHT22;53956;52.442;13.284;2023-06-22T02:38:24;25.00;96.80
18126;DHT22;53956;52.442;13.284;2023-06-22T02:40:51;24.90;96.90
18126;DHT22;53956;52.442;13.284;2023-06-22T02:43:18;24.80;96.70
18126;DHT22;53956;52.442;13.284;2023-06-22T02:45:44;24.70;97.80
18126;DHT22;53956;52.442;13.284;2023-06-22T02:48:11;24.80;97.70
18126;DHT22;53956;52.442;13.284;2023-06-22T02:50:38;24.90;97.60
18126;DHT22;53956;52.442;13.284;2023-06-22T02:53:07;24.90;97.40
18126;DHT22;53956;52.442;13.284;2023-06-22T02:55:37;24.90;97.90
18126;DHT22;53956;52.442;13.284;2023-06-22T02:58:05;24.70;98.10
18126;DHT22;53956;52.442;13.284;2023-06-22T03:00:37;24.70;98.20
18126;DHT22;53956;52.442;13.284;2023-06-22T03:03:04;24.80;98.50
18126;DHT22;53956;52.442;13.284;2023-06-22T03:05:31;24.80;98.80
18126;DHT22;53956;52.442;13.284;2023-06-22T03:07:58;24.90;98.40
18126;DHT22;53956;52.442;13.284;2023-06-22T03:10:28;24.90;98.70
18126;DHT22;53956;52.442;13.284;2023-06-22T03:12:55;24.80;98.30
18126;DHT22;53956;52.442;13.284;2023-06-22T03:15:22;24.70;98.80
18126;DHT22;53956;52.442;13.284;2023-06-22T03:17:50;24.70;99.40
18126;DHT22;53956;52.442;13.284;2023-06-22T03:20:16;24.70;99.10
18126;DHT22;53956;52.442;13.284;2023-06-22T03:22:44;24.70;99.20
18126;DHT22;53956;52.442;13.284;2023-06-22T03:25:11;24.70;99.30
18126;DHT22;53956;52.442;13.284;2023-06-22T03:27:41;24.70;99.60
18126;DHT22;53956;52.442;13.284;2023-06-22T03:30:11;24.40;99.90
18126;DHT22;53956;52.442;13.284;2023-06-22T03:32:38;24.60;99.90
18126;DHT22;53956;52.442;13.284;2023-06-22T03:35:06;24.70;99.80
18126;DHT22;53956;52.442;13.284;2023-06-22T03:37:35;24.70;99.90
18126;DHT22;53956;52.442;13.284;2023-06-22T03:40:02;24.60;99.90
18126;DHT22;53956;52.442;13.284;2023-06-22T03:42:33;24.60;99.80
18126;DHT22;53956;52.442;13.284;2023-06-22T03:45:01;24.70;99.80
18126;DHT22;53956;52.442;13.284;2023-06-22T03:47:29;24.80;99.20
18126;DHT22;53956;52.442;13.284;2023-06-22T03:49:57;24.90;98.80
18126;DHT22;53956;52.442;13.284;2023-06-22T03:52:24;24.60;99.10
18126;DHT22;53956;52.442;13.284;2023-06-22T03:54:50;24.80;99.50
18126;DHT22;53956;52.442;13.284;2023-06-22T03:57:17;24.70;99.10
18126;DHT22;53956;52.442;13.284;2023-06-22T03:59:44;24.60;99.80
18126;DHT22;53956;52.442;13.284;2023-06-22T04:02:12;24.80;99.80
18126;DHT22;53956;52.442;13.284;2023-06-22T04:04:39;24.60;99.50
18126;DHT22;53956;52.442;13.284;2023-06-22T04:07:05;24.30;99.90
18126;DHT22;53956;52.442;13.284;2023-06-22T04:09:32;24.40;99.90
18126;DHT22;53956;52.442;13.284;2023-06-22T04:11:59;24.30;99.90
18126;DHT22;53956;52.442;13.284;2023-06-22T04:14:25;24.30;99.40
18126;DHT22;53956;52.442;13.284;2023-06-22T04:16:52;24.40;99.30
18126;DHT22;53956;52.442;13.284;2023-06-22T04:19:20;24.30;98.20
18126;DHT22;53956;52.442;13.284;2023-06-22T04:21:47;24.10;99.90
18126;DHT22;53956;52.442;13.284;2023-06-22T04:24:14;24.30;99.50
18126;DHT22;53956;52.442;13.284;2023-06-22T04:26:41;24.10;99.90
18126;DHT22;53956;52.442;13.284;2023-06-22T04:29:10;23.90;99.90
18126;DHT22;53956;52.442;13.284;2023-06-22T04:31:37;23.90;99.90
18126;DHT22;53956;52.442;13.284;2023-06-22T04:34:05;24.00;99.90
18126;DHT22;53956;52.442;13.284;2023-06-22T04:36:36;24.20;99.90
18126;DHT22;53956;52.442;13.284;2023-06-22T04:39:07;24.30;99.90
18126;DHT22;53956;52.442;13.284;2023-06-22T04:41:34;24.80;99.50
18126;DHT22;53956;52.442;13.284;2023-06-22T04:44:08;24.90;98.10
18126;DHT22;53956;52.442;13.284;2023-06-22T04:46:34;24.70;98.80
18126;DHT22;53956;52.442;13.284;2023-06-22T04:49:06;25.00;98.10
18126;DHT22;53956;52.442;13.284;2023-06-22T04:51:39;24.90;97.90
18126;DHT22;53956;52.442;13.284;2023-06-22T04:54:05;24.90;95.90
18126;DHT22;53956;52.442;13.284;2023-06-22T04:56:32;24.80;96.90
18126;DHT22;53956;52.442;13.284;2023-06-22T04:58:59;24.80;95.60
18126;DHT22;53956;52.442;13.284;2023-06-22T05:01:26;24.80;95.90
18126;DHT22;53956;52.442;13.284;2023-06-22T05:03:52;25.00;95.30
18126;DHT22;53956;52.442;13.284;2023-06-22T05:06:21;25.10;94.40
18126;DHT22;53956;52.442;13.284;2023-06-22T05:08:52;25.20;94.60
18126;DHT22;53956;52.442;13.284;2023-06-22T05:11:18;25.00;94.70
18126;DHT22;53956;52.442;13.284;2023-06-22T05:13:45;25.40;93.80
18126;DHT22;53956;52.442;13.284;2023-06-22T05:16:12;25.50;92.20
18126;DHT22;53956;52.442;13.284;2023-06-22T05:18:38;25.20;91.70
18126;DHT22;53956;52.442;13.284;2023-06-22T05:21:05;25.40;91.00
18126;DHT22;53956;52.442;13.284;2023-06-22T05:23:31;25.80;89.90
18126;DHT22;53956;52.442;13.284;2023-06-22T05:25:59;25.90;88.90
18126;DHT22;53956;52.442;13.284;2023-06-22T05:28:29;26.50;85.70
18126;DHT22;53956;52.442;13.284;2023-06-22T05:30:55;26.80;85.70
18126;DHT22;53956;52.442;13.284;2023-06-22T05:33:22;26.40;85.10
18126;DHT22;53956;52.442;13.284;2023-06-22T05:35:49;26.10;87.90
18126;DHT22;53956;52.442;13.284;2023-06-22T05:38:15;25.50;89.50
18126;DHT22;53956;52.442;13.284;2023-06-22T05:40:42;25.10;90.70
18126;DHT22;53956;52.442;13.284;2023-06-22T05:43:10;25.10;90.80
18126;DHT22;53956;52.442;13.284;2023-06-22T05:45:36;25.50;91.00
18126;DHT22;53956;52.442;13.284;2023-06-22T05:48:04;25.80;91.10
18126;DHT22;53956;52.442;13.284;2023-06-22T05:50:30;26.40;86.80
18126;DHT22;53956;52.442;13.284;2023-06-22T05:52:57;26.00;88.10
18126;DHT22;53956;52.442;13.284;2023-06-22T05:55:23;25.90;88.80
18126;DHT22;53956;52.442;13.284;2023-06-22T05:57:50;25.90;89.10
18126;DHT22;53956;52.442;13.284;2023-06-22T06:00:19;25.90;89.20
18126;DHT22;53956;52.442;13.284;2023-06-22T06:02:48;26.30;88.00
18126;DHT22;53956;52.442;13.284;2023-06-22T06:05:15;26.20;88.40
18126;DHT22;53956;52.442;13.284;2023-06-22T06:07:43;26.20;87.60
18126;DHT22;53956;52.442;13.284;2023-06-22T06:10:10;26.30;88.30
18126;DHT22;53956;52.442;13.284;2023-06-22T06:12:37;27.30;83.60
18126;DHT22;53956;52.442;13.284;2023-06-22T06:15:04;28.50;81.10
18126;DHT22;53956;52.442;13.284;2023-06-22T06:17:32;29.20;78.50
18126;DHT22;53956;52.442;13.284;2023-06-22T06:19:59;29.60;74.40
18126;DHT22;53956;52.442;13.284;2023-06-22T06:22:25;29.80;74.40
18126;DHT22;53956;52.442;13.284;2023-06-22T06:24:52;30.40;72.10
18126;DHT22;53956;52.442;13.284;2023-06-22T06:27:19;30.80;72.00
18126;DHT22;53956;52.442;13.284;2023-06-22T06:29:45;30.80;71.80
18126;DHT22;53956;52.442;13.284;2023-06-22T06:32:14;30.70;71.50
18126;DHT22;53956;52.442;13.284;2023-06-22T06:34:42;30.70;70.50
18126;DHT22;53956;52.442;13.284;2023-06-22T06:37:08;31.10;68.00
18126;DHT22;53956;52.442;13.284;2023-06-22T06:39:35;30.60;68.30
18126;DHT22;53956;52.442;13.284;2023-06-22T06:42:02;30.50;68.40
18126;DHT22;53956;52.442;13.284;2023-06-22T06:44:28;29.90;70.20
18126;DHT22;53956;52.442;13.284;2023-06-22T06:46:55;30.90;66.10
18126;DHT22;53956;52.442;13.284;2023-06-22T06:49:22;30.70;67.10
18126;DHT22;53956;52.442;13.284;2023-06-22T06:51:50;31.10;65.20
18126;DHT22;53956;52.442;13.284;2023-06-22T06:54:17;30.40;66.80
18126;DHT22;53956;52.442;13.284;2023-06-22T06:56:46;29.90;66.00
18126;DHT22;53956;52.442;13.284;2023-06-22T06:59:13;29.50;68.40
18126;DHT22;53956;52.442;13.284;2023-06-22T07:01:40;29.60;69.60
18126;DHT22;53956;52.442;13.284;2023-06-22T07:04:07;29.10;71.10
18126;DHT22;53956;52.442;13.284;2023-06-22T07:06:33;29.60;70.70
18126;DHT22;53956;52.442;13.284;2023-06-22T07:09:01;29.30;67.90
18126;DHT22;53956;52.442;13.284;2023-06-22T07:11:29;29.50;67.80
18126;DHT22;53956;52.442;13.284;2023-06-22T07:13:55;30.20;67.10
18126;DHT22;53956;52.442;13.284;2023-06-22T07:16:22;29.70;68.60
18126;DHT22;53956;52.442;13.284;2023-06-22T07:18:51;29.70;69.80
18126;DHT22;53956;52.442;13.284;2023-06-22T07:21:17;29.30;66.80
18126;DHT22;53956;52.442;13.284;2023-06-22T07:23:44;29.60;65.00
18126;DHT22;53956;52.442;13.284;2023-06-22T07:26:12;29.60;66.10
18126;DHT22;53956;52.442;13.284;2023-06-22T07:28:38;29.80;64.60
18126;DHT22;53956;52.442;13.284;2023-06-22T07:31:06;29.60;63.50
18126;DHT22;53956;52.442;13.284;2023-06-22T07:33:33;29.10;63.60
18126;DHT22;53956;52.442;13.284;2023-06-22T07:35:59;28.60;64.90
18126;DHT22;53956;52.442;13.284;2023-06-22T07:38:26;28.40;65.70
18126;DHT22;53956;52.442;13.284;2023-06-22T07:40:52;28.90;66.60
18126;DHT22;53956;52.442;13.284;2023-06-22T07:43:20;29.20;65.80
18126;DHT22;53956;52.442;13.284;2023-06-22T07:45:50;29.50;63.90
18126;DHT22;53956;52.442;13.284;2023-06-22T07:48:20;29.50;65.20
18126;DHT22;53956;52.442;13.284;2023-06-22T07:50:47;28.80;64.40
18126;DHT22;53956;52.442;13.284;2023-06-22T07:53:14;28.30;66.00
18126;DHT22;53956;52.442;13.284;2023-06-22T07:55:41;28.30;65.70
18126;DHT22;53956;52.442;13.284;2023-06-22T07:58:07;28.10;68.20
18126;DHT22;53956;52.442;13.284;2023-06-22T08:00:35;28.40;67.90
18126;DHT22;53956;52.442;13.284;2023-06-22T08:03:02;28.40;65.70
18126;DHT22;53956;52.442;13.284;2023-06-22T08:05:31;28.60;65.90
18126;DHT22;53956;52.442;13.284;2023-06-22T08:07:58;28.50;65.20
18126;DHT22;53956;52.442;13.284;2023-06-22T08:10:24;28.00;64.80
18126;DHT22;53956;52.442;13.284;2023-06-22T08:12:51;27.80;65.60
18126;DHT22;53956;52.442;13.284;2023-06-22T08:15:18;27.50;66.80
18126;DHT22;53956;52.442;13.284;2023-06-22T08:17:46;27.90;69.40
18126;DHT22;53956;52.442;13.284;2023-06-22T08:20:12;28.10;66.80
18126;DHT22;53956;52.442;13.284;2023-06-22T08:22:39;27.80;65.40
18126;DHT22;53956;52.442;13.284;2023-06-22T08:25:08;27.90;63.40
18126;DHT22;53956;52.442;13.284;2023-06-22T08:27:34;27.60;64.00
18126;DHT22;53956;52.442;13.284;2023-06-22T08:30:02;27.30;64.10
18126;DHT22;53956;52.442;13.284;2023-06-22T08:32:29;27.40;63.90
18126;DHT22;53956;52.442;13.284;2023-06-22T08:34:59;27.50;66.30
18126;DHT22;53956;52.442;13.284;2023-06-22T08:37:26;27.70;64.80
18126;DHT22;53956;52.442;13.284;2023-06-22T08:39:56;27.40;65.10
18126;DHT22;53956;52.442;13.284;2023-06-22T08:42:23;27.30;65.00
18126;DHT22;53956;52.442;13.284;2023-06-22T08:44:51;27.50;65.60
18126;DHT22;53956;52.442;13.284;2023-06-22T08:47:17;27.70;66.30
18126;DHT22;53956;52.442;13.284;2023-06-22T08:49:44;27.80;65.10
18126;DHT22;53956;52.442;13.284;2023-06-22T08:52:12;28.00;62.10
18126;DHT22;53956;52.442;13.284;2023-06-22T08:54:39;28.00;62.50
18126;DHT22;53956;52.442;13.284;2023-06-22T08:57:06;28.20;63.50
18126;DHT22;53956;52.442;13.284;2023-06-22T08:59:33;27.90;61.80
18126;DHT22;53956;52.442;13.284;2023-06-22T09:01:59;28.00;62.50
18126;DHT22;53956;52.442;13.284;2023-06-22T09:04:26;28.00;63.50
18126;DHT22;53956;52.442;13.284;2023-06-22T09:06:52;28.20;63.70
18126;DHT22;53956;52.442;13.284;2023-06-22T09:09:21;27.80;62.90
18126;DHT22;53956;52.442;13.284;2023-06-22T09:11:48;27.80;64.00
18126;DHT22;53956;52.442;13.284;2023-06-22T09:14:14;28.10;66.10
18126;DHT22;53956;52.442;13.284;2023-06-22T09:16:41;28.50;66.00
18126;DHT22;53956;52.442;13.284;2023-06-22T09:19:08;28.40;64.90
18126;DHT22;53956;52.442;13.284;2023-06-22T09:21:34;28.20;64.10
18126;DHT22;53956;52.442;13.284;2023-06-22T09:24:01;27.80;65.10
18126;DHT22;53956;52.442;13.284;2023-06-22T09:26:29;27.90;65.00
18126;DHT22;53956;52.442;13.284;2023-06-22T09:28:55;28.10;65.80
18126;DHT22;53956;52.442;13.284;2023-06-22T09:31:23;27.90;63.90
18126;DHT22;53956;52.442;13.284;2023-06-22T09:33:51;28.10;65.00
18126;DHT22;53956;52.442;13.284;2023-06-22T09:36:18;28.40;64.50
18126;DHT22;53956;52.442;13.284;2023-06-22T09:38:44;28.00;63.60
18126;DHT22;53956;52.442;13.284;2023-06-22T09:41:11;28.10;64.60
18126;DHT22;53956;52.442;13.284;2023-06-22T09:43:39;28.20;66.40
18126;DHT22;53956;52.442;13.284;2023-06-22T09:46:06;28.40;67.90
18126;DHT22;53956;52.442;13.284;2023-06-22T09:48:34;28.40;67.40
18126;DHT22;53956;52.442;13.284;2023-06-22T09:51:01;28.60;69.10
18126;DHT22;53956;52.442;13.284;2023-06-22T09:53:28;28.40;67.60
18126;DHT22;53956;52.442;13.284;2023-06-22T09:55:54;28.30;65.30
18126;DHT22;53956;52.442;13.284;2023-06-22T09:58:22;28.30;66.10
18126;DHT22;53956;52.442;13.284;2023-06-22T10:00:50;28.30;66.50
18126;DHT22;53956;52.442;13.284;2023-06-22T10:03:17;28.50;65.70
18126;DHT22;53956;52.442;13.284;2023-06-22T10:05:43;28.60;65.90
18126;DHT22;53956;52.442;13.284;2023-06-22T10:08:10;28.60;67.60
18126;DHT22;53956;52.442;13.284;2023-06-22T10:10:37;28.30;66.00
18126;DHT22;53956;52.442;13.284;2023-06-22T10:13:08;28.50;67.80
18126;DHT22;53956;52.442;13.284;2023-06-22T10:15:35;28.50;66.00
18126;DHT22;53956;52.442;13.284;2023-06-22T10:18:03;28.40;66.20
18126;DHT22;53956;52.442;13.284;2023-06-22T10:20:30;28.70;67.30
18126;DHT22;53956;52.442;13.284;2023-06-22T10:22:56;28.50;64.60
18126;DHT22;53956;52.442;13.284;2023-06-22T10:25:23;28.50;65.20
18126;DHT22;53956;52.442;13.284;2023-06-22T10:27:50;28.60;64.40
18126;DHT22;53956;52.442;13.284;2023-06-22T10:30:17;28.60;64.50
18126;DHT22;53956;52.442;13.284;2023-06-22T10:32:43;28.60;64.50
18126;DHT22;53956;52.442;13.284;2023-06-22T10:35:11;28.90;65.30
18126;DHT22;53956;52.442;13.284;2023-06-22T10:37:42;28.80;64.30
18126;DHT22;53956;52.442;13.284;2023-06-22T10:40:09;28.80;63.50
18126;DHT22;53956;52.442;13.284;2023-06-22T10:42:36;28.60;62.90
18126;DHT22;53956;52.442;13.284;2023-06-22T10:45:03;28.70;63.10
18126;DHT22;53956;52.442;13.284;2023-06-22T10:47:30;28.70;63.60
18126;DHT22;53956;52.442;13.284;2023-06-22T10:49:56;29.00;65.30
18126;DHT22;53956;52.442;13.284;2023-06-22T10:52:24;29.10;61.10
18126;DHT22;53956;52.442;13.284;2023-06-22T10:54:51;29.10;61.50
18126;DHT22;53956;52.442;13.284;2023-06-22T10:57:17;29.10;61.70
18126;DHT22;53956;52.442;13.284;2023-06-22T10:59:44;29.00;63.20
18126;DHT22;53956;52.442;13.284;2023-06-22T11:02:11;29.20;64.10
18126;DHT22;53956;52.442;13.284;2023-06-22T11:04:38;29.40;63.30
18126;DHT22;53956;52.442;13.284;2023-06-22T11:07:05;29.40;62.90
18126;DHT22;53956;52.442;13.284;2023-06-22T11:09:33;29.30;61.30
18126;DHT22;53956;52.442;13.284;2023-06-22T11:11:59;29.20;61.60
18126;DHT22;53956;52.442;13.284;2023-06-22T11:14:26;29.30;61.70
18126;DHT22;53956;52.442;13.284;2023-06-22T11:16:53;29.20;60.70
18126;DHT22;53956;52.442;13.284;2023-06-22T11:19:19;29.10;62.20
18126;DHT22;53956;52.442;13.284;2023-06-22T11:21:46;29.10;62.60
18126;DHT22;53956;52.442;13.284;2023-06-22T11:24:13;29.20;62.10
18126;DHT22;53956;52.442;13.284;2023-06-22T11:26:41;29.50;62.00
18126;DHT22;53956;52.442;13.284;2023-06-22T11:29:07;29.40;60.80
18126;DHT22;53956;52.442;13.284;2023-06-22T11:31:34;29.20;59.80
18126;DHT22;53956;52.442;13.284;2023-06-22T11:34:01;29.30;61.20
18126;DHT22;53956;52.442;13.284;2023-06-22T11:36:28;29.20;59.50
18126;DHT22;53956;52.442;13.284;2023-06-22T11:38:56;28.90;60.20
18126;DHT22;53956;52.442;13.284;2023-06-22T11:41:23;28.90;61.30
18126;DHT22;53956;52.442;13.284;2023-06-22T11:43:51;29.00;62.50
18126;DHT22;53956;52.442;13.284;2023-06-22T11:46:17;29.20;62.10
18126;DHT22;53956;52.442;13.284;2023-06-22T11:48:44;29.50;61.30
18126;DHT22;53956;52.442;13.284;2023-06-22T11:51:11;29.50;61.60
18126;DHT22;53956;52.442;13.284;2023-06-22T11:53:37;29.20;59.60
18126;DHT22;53956;52.442;13.284;2023-06-22T11:56:04;29.20;59.70
18126;DHT22;53956;52.442;13.284;2023-06-22T11:58:30;29.20;59.80
18126;DHT22;53956;52.442;13.284;2023-06-22T12:00:58;29.40;59.80
18126;DHT22;53956;52.442;13.284;2023-06-22T12:03:25;29.20;59.60
18126;DHT22;53956;52.442;13.284;2023-06-22T12:05:52;29.10;58.80
18126;DHT22;53956;52.442;13.284;2023-06-22T12:08:18;29.20;61.20
18126;DHT22;53956;52.442;13.284;2023-06-22T12:10:45;29.40;59.50
18126;DHT22;53956;52.442;13.284;2023-06-22T12:13:12;29.50;59.80
18126;DHT22;53956;52.442;13.284;2023-06-22T12:15:38;29.30;58.60
18126;DHT22;53956;52.442;13.284;2023-06-22T12:18:06;29.20;60.10
18126;DHT22;53956;52.442;13.284;2023-06-22T12:20:34;29.40;60.00
18126;DHT22;53956;52.442;13.284;2023-06-22T12:23:01;29.40;59.50
18126;DHT22;53956;52.442;13.284;2023-06-22T12:25:27;29.20;58.90
18126;DHT22;53956;52.442;13.284;2023-06-22T12:27:54;29.00;60.20
18126;DHT22;53956;52.442;13.284;2023-06-22T12:30:20;29.10;60.30
18126;DHT22;53956;52.442;13.284;2023-06-22T12:32:47;29.30;61.70
18126;DHT22;53956;52.442;13.284;2023-06-22T12:35:16;29.10;59.20
18126;DHT22;53956;52.442;13.284;2023-06-22T12:37:43;29.10;59.40
18126;DHT22;53956;52.442;13.284;2023-06-22T12:40:10;29.10;61.30
18126;DHT22;53956;52.442;13.284;2023-06-22T12:42:37;29.20;60.10
18126;DHT22;53956;52.442;13.284;2023-06-22T12:45:04;29.30;58.90
18126;DHT22;53956;52.442;13.284;2023-06-22T12:47:31;29.20;59.10
18126;DHT22;53956;52.442;13.284;2023-06-22T12:49:58;29.40;60.80
18126;DHT22;53956;52.442;13.284;2023-06-22T12:52:26;29.40;59.40
18126;DHT22;53956;52.442;13.284;2023-06-22T12:54:52;29.30;59.80
18126;DHT22;53956;52.442;13.284;2023-06-22T12:57:19;29.20;59.00
18126;DHT22;53956;52.442;13.284;2023-06-22T12:59:46;29.10;59.70
18126;DHT22;53956;52.442;13.284;2023-06-22T13:02:13;29.30;59.40
18126;DHT22;53956;52.442;13.284;2023-06-22T13:04:39;29.30;60.30
18126;DHT22;53956;52.442;13.284;2023-06-22T13:07:06;29.40;60.60
18126;DHT22;53956;52.442;13.284;2023-06-22T13:09:36;29.50;58.80
18126;DHT22;53956;52.442;13.284;2023-06-22T13:12:03;29.50;59.80
18126;DHT22;53956;52.442;13.284;2023-06-22T13:14:30;29.50;59.10
18126;DHT22;53956;52.442;13.284;2023-06-22T13:16:56;29.40;59.00
18126;DHT22;53956;52.442;13.284;2023-06-22T13:19:23;29.50;59.00
18126;DHT22;53956;52.442;13.284;2023-06-22T13:21:50;29.40;58.80
18126;DHT22;53956;52.442;13.284;2023-06-22T13:24:16;29.30;59.40
18126;DHT22;53956;52.442;13.284;2023-06-22T13:26:44;29.40;60.40
18126;DHT22;53956;52.442;13.284;2023-06-22T13:29:11;29.60;59.70
18126;DHT22;53956;52.442;13.284;2023-06-22T13:31:37;29.50;59.20
18126;DHT22;53956;52.442;13.284;2023-06-22T13:34:04;29.20;58.70
18126;DHT22;53956;52.442;13.284;2023-06-22T13:36:31;29.10;59.30
18126;DHT22;53956;52.442;13.284;2023-06-22T13:38:58;29.20;59.40
18126;DHT22;53956;52.442;13.284;2023-06-22T13:41:24;29.20;59.40
18126;DHT22;53956;52.442;13.284;2023-06-22T13:43:52;29.20;59.90
18126;DHT22;53956;52.442;13.284;2023-06-22T13:46:19;29.40;60.10
18126;DHT22;53956;52.442;13.284;2023-06-22T13:48:45;29.40;60.00
18126;DHT22;53956;52.442;13.284;2023-06-22T13:51:12;29.50;60.00
18126;DHT22;53956;52.442;13.284;2023-06-22T13:53:39;29.50;59.80
18126;DHT22;53956;52.442;13.284;2023-06-22T13:56:05;29.20;59.80
18126;DHT22;53956;52.442;13.284;2023-06-22T13:58:32;29.40;59.90
18126;DHT22;53956;52.442;13.284;2023-06-22T14:01:00;29.30;59.30
18126;DHT22;53956;52.442;13.284;2023-06-22T14:03:26;29.30;59.90
18126;DHT22;53956;52.442;13.284;2023-06-22T14:05:53;29.40;59.90
18126;DHT22;53956;52.442;13.284;2023-06-22T14:08:21;29.30;60.30
18126;DHT22;53956;52.442;13.284;2023-06-22T14:10:49;29.50;60.30
18126;DHT22;53956;52.442;13.284;2023-06-22T14:13:16;29.60;61.50
18126;DHT22;53956;52.442;13.284;2023-06-22T14:15:42;29.70;61.10
18126;DHT22;53956;52.442;13.284;2023-06-22T14:18:10;29.70;61.70
18126;DHT22;53956;52.442;13.284;2023-06-22T14:20:37;29.70;60.40
18126;DHT22;53956;52.442;13.284;2023-06-22T14:23:05;29.70;60.70
18126;DHT22;53956;52.442;13.284;2023-06-22T14:25:32;29.80;62.50
18126;DHT22;53956;52.442;13.284;2023-06-22T14:27:58;29.90;62.60
18126;DHT22;53956;52.442;13.284;2023-06-22T14:30:25;29.60;60.00
18126;DHT22;53956;52.442;13.284;2023-06-22T14:32:51;29.50;60.20
18126;DHT22;53956;52.442;13.284;2023-06-22T14:35:19;29.70;61.20
18126;DHT22;53956;52.442;13.284;2023-06-22T14:37:46;29.70;60.70
18126;DHT22;53956;52.442;13.284;2023-06-22T14:40:14;29.50;60.30
18126;DHT22;53956;52.442;13.284;2023-06-22T14:42:40;29.60;60.20
18126;DHT22;53956;52.442;13.284;2023-06-22T14:45:07;29.40;60.10
18126;DHT22;53956;52.442;13.284;2023-06-22T14:47:34;29.50;61.20
18126;DHT22;53956;52.442;13.284;2023-06-22T14:50:01;29.60;60.40
18126;DHT22;53956;52.442;13.284;2023-06-22T14:52:29;29.70;60.40
18126;DHT22;53956;52.442;13.284;2023-06-22T14:54:55;29.80;60.60
18126;DHT22;53956;52.442;13.284;2023-06-22T14:57:22;29.80;60.40
18126;DHT22;53956;52.442;13.284;2023-06-22T14:59:49;29.80;60.20
18126;DHT22;53956;52.442;13.284;2023-06-22T15:02:16;29.90;60.50
18126;DHT22;53956;52.442;13.284;2023-06-22T15:04:42;29.90;60.60
18126;DHT22;53956;52.442;13.284;2023-06-22T15:07:10;30.10;60.30
18126;DHT22;53956;52.442;13.284;2023-06-22T15:09:40;30.00;60.90
18126;DHT22;53956;52.442;13.284;2023-06-22T15:12:08;30.00;59.60
18126;DHT22;53956;52.442;13.284;2023-06-22T15:14:37;29.90;60.10
18126;DHT22;53956;52.442;13.284;2023-06-22T15:17:05;29.90;61.10